Fort Bridger, Fort Bridger Airport (KFBR)

NameFort Bridger Airport
CityFort Bridger
CountryUnited States
ICAOKFBR
IATAFBR
Altitude2144 m
CoordinatesGoogle Map
Live Air TrafficLiveATC.net
METARKFBR 081455Z AUTO 26010KT 10SM SCT032 M03/M03 A3029 RMK AO2 T10351035
2018-12-08 14:55:00 Wind: West-Southwest (260°) 5.14 m/s - Visibility: 16093.4 m - Temperature: -3 °C - Dew point: -3 °C - Humidity: 100% - Pressure: 1025.74 hPa

Sorry, no flights used the airport in this database.